.
WxDataArchive / Data Records for 2014-10-01
2014-09-30 October 2014 2014-10-02

Data Records for Wednesday, 01 October 2014

Time	Temp	Chill	HIndex	Humid	Dewpt	 Wind 	HiWind	WindDir	Rain 	Barom
-----	----	-----	------	-----	-----	------	------	-------	-----	-----
00:00	55.6	55.6	55.6	75	47.8	0	1	112	0.00	29.995 
00:05	55.6	55.6	55.6	76	48.2	0	1	112	0.00	29.995 
00:10	55.6	55.6	55.6	76	48.2	0	0	---	0.00	29.995 
00:15	55.6	55.6	55.6	77	48.5	0	0	---	0.00	29.995 
00:20	55.6	55.6	55.6	77	48.5	0	0	---	0.00	29.995 
00:25	55.4	55.4	55.4	76	48.0	0	1	112	0.00	29.995 
00:30	55.4	55.4	55.4	76	48.0	0	0	---	0.00	29.997 
00:35	55.4	55.4	55.4	76	48.0	0	1	112	0.00	29.997 
00:40	55.4	55.4	55.4	76	48.0	0	0	---	0.00	29.997 
00:45	55.4	55.4	55.4	77	48.3	0	0	---	0.00	29.992 
00:50	55.1	55.1	55.1	77	48.0	0	0	---	0.00	29.992 
00:55	54.8	54.8	54.8	77	47.7	0	0	---	0.00	29.992 
01:00	54.4	54.4	54.4	77	47.3	0	0	---	0.00	29.998 
01:05	53.9	53.9	53.9	78	47.2	0	0	---	0.00	29.998 
01:10	53.5	53.5	53.5	79	47.1	0	0	---	0.00	29.998 
01:15	53.2	53.2	53.2	79	46.9	0	0	---	0.00	30.003 
01:20	52.8	52.8	52.8	80	46.8	0	0	---	0.00	30.003 
01:25	52.5	52.5	52.5	81	46.8	0	0	---	0.00	30.003 
01:30	52.0	52.0	52.0	82	46.7	0	0	---	0.00	30.012 
01:35	51.7	51.7	51.7	82	46.4	0	1	112	0.00	30.012 
01:40	51.6	51.6	51.6	85	47.2	0	1	112	0.00	30.012 
01:45	51.6	51.6	51.6	86	47.5	0	2	112	0.00	30.015 
01:50	51.7	51.7	51.7	86	47.6	0	2	112	0.00	30.015 
01:55	51.7	51.7	51.7	87	48.0	0	2	112	0.00	30.015 
02:00	51.6	51.6	51.6	87	47.9	0	1	112	0.00	30.013 
02:05	51.4	51.4	51.4	87	47.7	0	1	112	0.00	30.013 
02:10	51.1	51.1	51.1	88	47.7	0	1	112	0.00	30.013 
02:15	51.0	51.0	51.0	88	47.6	0	1	112	0.00	30.014 
02:20	50.7	50.7	50.7	89	47.6	0	1	112	0.00	30.014 
02:25	50.5	50.5	50.5	89	47.4	0	1	112	0.00	30.014 
02:30	50.4	50.4	50.4	89	47.3	0	1	112	0.00	30.017 
02:35	50.2	50.2	50.2	90	47.4	0	1	112	0.00	30.017 
02:40	50.1	50.1	50.1	90	47.3	0	3	112	0.00	30.017 
02:45	49.9	49.9	49.9	90	47.1	0	1	112	0.00	30.017 
02:50	49.9	49.9	49.9	91	47.4	0	1	112	0.00	30.017 
02:55	49.8	49.8	49.8	91	47.3	0	1	112	0.00	30.017 
03:00	49.6	49.6	49.6	91	47.1	0	1	112	0.00	30.015 
03:05	49.5	49.5	49.5	91	47.0	0	1	112	0.00	30.015 
03:10	49.4	49.4	49.4	91	46.9	0	0	---	0.00	30.015 
03:15	49.2	49.2	49.2	91	46.7	0	0	---	0.00	30.014 
03:20	49.1	49.1	49.1	91	46.6	0	0	---	0.00	30.014 
03:25	48.9	48.9	48.9	91	46.4	0	0	---	0.00	30.014 
03:30	48.8	48.8	48.8	91	46.3	0	0	---	0.00	30.006 
03:35	48.5	48.5	48.5	91	46.0	0	0	---	0.00	30.006 
03:40	48.3	48.3	48.3	91	45.8	0	0	---	0.00	30.006 
03:45	48.2	48.2	48.2	91	45.7	0	0	---	0.00	30.002 
03:50	47.9	47.9	47.9	91	45.4	0	0	---	0.00	30.002 
03:55	47.7	47.7	47.7	92	45.5	0	0	---	0.00	30.002 
04:00	47.6	47.6	47.6	92	45.4	0	0	---	0.00	29.997 
04:05	47.6	47.6	47.6	92	45.4	0	0	---	0.00	29.997 
04:10	47.4	47.4	47.4	92	45.2	0	0	---	0.00	29.997 
04:15	47.6	47.6	47.6	92	45.4	0	0	---	0.00	29.990 
04:20	47.7	47.7	47.7	92	45.5	0	0	---	0.00	29.990 
04:25	47.7	47.7	47.7	92	45.5	0	0	---	0.00	29.990 
04:30	47.7	47.7	47.7	92	45.5	0	0	---	0.00	29.988 
04:35	47.7	47.7	47.7	93	45.8	0	0	---	0.00	29.988 
04:40	47.6	47.6	47.6	93	45.7	0	0	---	0.00	29.988 
04:45	47.6	47.6	47.6	93	45.7	0	0	---	0.00	29.988 
04:50	47.4	47.4	47.4	93	45.5	0	0	---	0.00	29.988 
04:55	47.3	47.3	47.3	93	45.4	0	0	---	0.00	29.988 
05:00	47.1	47.1	47.1	93	45.2	0	0	---	0.00	29.989 
05:05	47.0	47.0	47.0	93	45.1	0	0	---	0.00	29.989 
05:10	46.8	46.8	46.8	93	44.9	0	0	---	0.00	29.989 
05:15	46.7	46.7	46.7	93	44.8	0	0	---	0.00	29.991 
05:20	46.5	46.5	46.5	93	44.6	0	0	---	0.00	29.991 
05:25	46.4	46.4	46.4	93	44.5	0	0	---	0.00	29.991 
05:30	46.1	46.1	46.1	93	44.2	0	0	---	0.00	29.994 
05:35	46.0	46.0	46.0	93	44.1	0	0	---	0.00	29.994 
05:40	45.8	45.8	45.8	93	43.9	0	0	---	0.00	29.994 
05:45	45.7	45.7	45.7	93	43.8	0	0	---	0.00	29.993 
05:50	45.5	45.5	45.5	93	43.6	0	0	---	0.00	29.993 
05:55	45.4	45.4	45.4	93	43.5	0	0	---	0.00	29.993 
06:00	45.2	45.2	45.2	93	43.3	0	0	---	0.00	30.002 
06:05	45.1	45.1	45.1	93	43.2	0	0	---	0.00	30.002 
06:10	44.9	44.9	44.9	93	43.0	0	0	---	0.00	30.002 
06:15	44.8	44.8	44.8	93	42.9	0	0	---	0.00	30.001 
06:20	44.6	44.6	44.6	93	42.7	0	0	---	0.00	30.001 
06:25	44.6	44.6	44.6	93	42.7	0	0	---	0.00	30.001 
06:30	44.5	44.5	44.5	93	42.6	0	0	---	0.00	30.006 
06:35	44.5	44.5	44.5	93	42.6	0	0	---	0.00	30.006 
06:40	44.3	44.3	44.3	93	42.4	0	0	---	0.00	30.006 
06:45	44.2	44.2	44.2	93	42.3	0	0	---	0.00	30.006 
06:50	44.2	44.2	44.2	93	42.3	0	0	---	0.00	30.006 
06:55	43.9	43.9	43.9	93	42.0	0	0	---	0.00	30.006 
07:00	43.8	43.8	43.8	93	41.9	0	0	---	0.00	30.012 
07:05	43.6	43.6	43.6	93	41.7	0	0	---	0.00	30.012 
07:10	43.6	43.6	43.6	94	42.0	0	0	---	0.00	30.012 
07:15	43.8	43.8	43.8	94	42.2	0	0	---	0.00	30.016 
07:20	43.9	43.9	43.9	94	42.3	0	0	---	0.00	30.016 
07:25	44.1	44.1	44.1	94	42.5	0	0	---	0.00	30.016 
07:30	44.3	44.3	44.3	94	42.7	0	0	---	0.00	30.022 
07:35	44.6	44.6	44.6	94	43.0	0	0	---	0.00	30.022 
07:40	44.9	44.9	44.9	94	43.3	0	0	---	0.00	30.022 
07:45	45.1	45.1	45.1	94	43.5	0	0	---	0.00	30.021 
07:50	45.4	45.4	45.4	95	44.1	0	0	---	0.00	30.021 
07:55	45.7	45.7	45.7	95	44.4	0	0	---	0.00	30.021 
08:00	46.0	46.0	46.0	95	44.6	0	0	---	0.00	30.021 
08:05	46.2	46.2	46.2	95	44.8	0	0	---	0.00	30.021 
08:10	46.5	46.5	46.5	95	45.1	0	0	---	0.00	30.021 
08:15	46.8	46.8	46.8	95	45.4	0	0	---	0.00	30.024 
08:20	47.0	47.0	47.0	95	45.6	0	0	---	0.00	30.024 
08:25	47.3	47.3	47.3	95	45.9	0	0	---	0.00	30.024 
08:30	47.6	47.6	47.6	95	46.2	0	0	---	0.00	30.027 
08:35	47.9	47.9	47.9	95	46.5	0	0	---	0.00	30.027 
08:40	48.3	48.3	48.3	95	46.9	0	0	---	0.00	30.027 
08:45	48.6	48.6	48.6	95	47.2	0	0	---	0.00	30.032 
08:50	48.8	48.8	48.8	95	47.4	0	0	---	0.00	30.032 
08:55	49.2	49.2	49.2	96	48.1	0	1	112	0.00	30.032 
09:00	49.6	49.6	49.6	96	48.5	0	1	112	0.00	30.028 
09:05	49.9	49.9	49.9	96	48.8	0	2	112	0.00	30.028 
09:10	50.1	50.1	50.1	96	49.0	0	2	112	0.00	30.028 
09:15	50.4	50.4	50.4	96	49.3	0	2	112	0.00	30.029 
09:20	50.4	50.4	50.4	95	49.0	0	3	112	0.00	30.029 
09:25	50.5	50.5	50.5	95	49.1	0	3	112	0.00	30.029 
09:30	50.7	50.7	50.7	95	49.3	0	2	112	0.00	30.032 
09:35	51.0	51.0	51.0	95	49.6	1	4	112	0.00	30.032 
09:40	51.3	51.3	51.3	95	49.9	0	2	112	0.00	30.032 
09:45	51.3	51.3	51.3	95	49.9	1	3	112	0.00	30.031 
09:50	51.6	51.6	51.6	94	49.9	0	2	112	0.00	30.031 
09:55	51.9	51.9	51.9	94	50.2	0	3	112	0.00	30.031 
10:00	52.2	52.2	52.2	94	50.5	0	2	112	0.00	30.039 
10:05	52.3	52.3	52.3	93	50.3	1	3	112	0.00	30.039 
10:10	52.5	52.5	52.5	93	50.5	1	3	90	0.00	30.039 
10:15	52.8	52.8	52.8	92	50.5	0	2	90	0.00	30.041 
10:20	53.2	53.2	53.2	92	50.9	0	1	90	0.00	30.041 
10:25	53.6	53.6	53.6	92	51.3	0	2	90	0.00	30.041 
10:30	53.9	53.9	53.9	91	51.3	0	2	90	0.00	30.041 
10:35	54.1	54.1	54.1	90	51.2	1	4	90	0.00	30.041 
10:40	54.5	54.5	54.5	90	51.6	0	3	90	0.00	30.041 
10:45	55.3	55.3	55.3	89	52.1	0	1	90	0.00	30.040 
10:50	56.3	56.3	56.3	87	52.5	0	2	90	0.00	30.040 
10:55	56.6	56.6	56.6	85	52.1	0	3	158	0.00	30.040 
11:00	56.6	56.6	56.6	85	52.1	0	2	158	0.00	30.037 
11:05	57.0	57.0	57.0	84	52.2	0	2	158	0.00	30.037 
11:10	57.6	57.6	57.6	81	51.8	0	2	158	0.00	30.037 
11:15	57.3	57.3	57.3	80	51.2	2	4	68	0.00	30.038 
11:20	57.5	57.5	57.5	81	51.7	1	3	68	0.00	30.038 
11:25	57.8	57.8	57.8	80	51.7	0	2	68	0.00	30.038 
11:30	58.1	58.1	58.1	78	51.3	0	2	68	0.00	30.036 
11:35	58.1	58.1	58.1	78	51.3	0	1	68	0.00	30.036 
11:40	58.4	58.4	58.4	78	51.6	0	0	---	0.00	30.036 
11:45	58.6	58.6	58.6	77	51.4	0	2	68	0.00	30.039 
11:50	58.7	58.7	58.7	76	51.2	0	3	68	0.00	30.039 
11:55	58.9	58.9	58.9	77	51.7	0	4	68	0.00	30.039 
12:00	59.3	59.3	59.3	73	50.6	1	3	68	0.00	30.039 
12:05	59.5	59.5	59.5	73	50.8	2	6	68	0.00	30.039 
12:10	59.5	59.5	59.5	73	50.8	0	2	90	0.00	30.039 
12:15	59.8	59.8	59.8	73	51.1	0	2	90	0.00	30.040 
12:20	60.4	60.4	60.4	73	51.7	0	2	90	0.00	30.040 
12:25	60.9	60.9	60.9	70	51.0	0	3	90	0.00	30.040 
12:30	61.2	61.2	61.2	71	51.7	0	1	135	0.00	30.039 
12:35	62.1	62.1	62.1	68	51.4	1	4	135	0.00	30.039 
12:40	62.6	62.6	62.6	66	51.1	1	3	112	0.00	30.039 
12:45	63.2	63.2	63.2	67	52.1	0	2	112	0.00	30.038 
12:50	63.1	63.1	63.1	65	51.1	1	3	90	0.00	30.038 
12:55	62.6	62.6	62.6	67	51.5	1	3	90	0.00	30.038 
13:00	61.8	61.8	61.8	69	51.5	1	3	90	0.00	30.034 
13:05	61.3	61.3	61.3	69	51.0	0	2	90	0.00	30.034 
13:10	60.9	60.9	60.9	69	50.7	1	3	90	0.00	30.034 
13:15	60.9	60.9	60.9	69	50.7	1	4	90	0.00	30.032 
13:20	61.0	61.0	61.0	69	50.8	2	4	90	0.00	30.032 
13:25	61.3	61.3	61.3	68	50.6	1	3	112	0.00	30.032 
13:30	61.6	61.6	61.6	67	50.5	1	4	112	0.00	30.025 
13:35	62.4	62.4	62.4	69	52.1	0	2	112	0.00	30.025 
13:40	63.2	63.2	63.2	65	51.2	1	3	248	0.00	30.025 
13:45	63.9	63.9	63.9	62	50.6	0	2	112	0.00	30.018 
13:50	64.3	64.3	64.3	60	50.1	1	3	112	0.00	30.018 
13:55	64.3	64.3	64.3	63	51.4	1	3	112	0.00	30.018 
14:00	63.9	63.9	63.9	64	51.5	0	2	90	0.00	30.013 
14:05	63.5	63.5	63.5	63	50.7	0	2	90	0.00	30.013 
14:10	63.5	63.5	63.5	62	50.2	1	5	90	0.00	30.013 
14:15	63.9	63.9	63.9	62	50.6	0	1	90	0.00	30.011 
14:20	64.5	64.5	64.5	62	51.2	0	3	112	0.00	30.011 
14:25	64.8	64.8	64.8	63	51.9	1	2	112	0.00	30.011 
14:30	65.2	65.2	65.2	61	51.4	1	3	112	0.00	30.006 
14:35	65.2	65.2	65.2	60	51.0	1	5	90	0.00	30.006 
14:40	65.3	65.3	65.3	58	50.1	0	1	90	0.00	30.006 
14:45	65.5	65.5	65.5	59	50.8	1	2	90	0.00	30.001 
14:50	65.3	65.3	65.3	60	51.1	1	4	90	0.00	30.001 
14:55	65.3	65.3	65.3	57	49.7	0	2	90	0.00	30.001 
15:00	65.5	65.5	65.5	59	50.8	0	1	90	0.00	29.995 
15:05	65.6	65.6	65.6	58	50.4	1	5	112	0.00	29.995 
15:10	65.3	65.3	65.3	58	50.1	1	4	90	0.00	29.995 
15:15	65.2	65.2	65.2	58	50.0	1	3	90	0.00	29.995 
15:20	65.2	65.2	65.2	58	50.0	0	4	90	0.00	29.995 
15:25	65.2	65.2	65.2	58	50.0	1	4	90	0.00	29.995 
15:30	65.3	65.3	65.3	57	49.7	0	3	90	0.00	29.995 
15:35	65.5	65.5	65.5	56	49.4	1	4	112	0.00	29.995 
15:40	65.5	65.5	65.5	56	49.4	1	6	68	0.00	29.995 
15:45	65.5	65.5	65.5	56	49.4	0	2	68	0.00	29.987 
15:50	65.6	65.6	65.6	58	50.4	0	1	68	0.00	29.987 
15:55	66.1	66.1	66.1	57	50.4	0	2	68	0.00	29.987 
16:00	66.6	66.6	66.6	56	50.4	0	2	68	0.00	29.982 
16:05	66.9	66.9	66.9	54	49.7	0	1	68	0.00	29.982 
16:10	66.9	66.9	66.9	54	49.7	0	2	112	0.00	29.982 
16:15	66.9	66.9	66.9	54	49.7	0	2	112	0.00	29.977 
16:20	66.9	66.9	66.9	54	49.7	0	2	112	0.00	29.977 
16:25	66.9	66.9	66.9	54	49.7	0	1	135	0.00	29.977 
16:30	66.8	66.8	66.8	53	49.1	0	2	135	0.00	29.975 
16:35	66.8	66.8	66.8	55	50.1	0	1	135	0.00	29.975 
16:40	66.8	66.8	66.8	55	50.1	0	1	135	0.00	29.975 
16:45	66.8	66.8	66.8	54	49.6	0	1	135	0.00	29.966 
16:50	66.8	66.8	66.8	56	50.6	0	2	135	0.00	29.966 
16:55	66.6	66.6	66.6	54	49.4	0	3	135	0.00	29.966 
17:00	66.6	66.6	66.6	54	49.4	0	3	135	0.00	29.968 
17:05	66.8	66.8	66.8	53	49.1	0	2	135	0.00	29.968 
17:10	66.8	66.8	66.8	54	49.6	0	1	135	0.00	29.968 
17:15	66.6	66.6	66.6	53	48.9	0	2	135	0.00	29.965 
17:20	66.6	66.6	66.6	54	49.4	0	1	135	0.00	29.965 
17:25	66.6	66.6	66.6	54	49.4	0	1	135	0.00	29.965 
17:30	66.6	66.6	66.6	55	49.9	0	1	135	0.00	29.962 
17:35	66.6	66.6	66.6	55	49.9	0	3	135	0.00	29.962 
17:40	66.6	66.6	66.6	55	49.9	0	1	135	0.00	29.962 
17:45	66.6	66.6	66.6	54	49.4	0	3	90	0.00	29.963 
17:50	66.4	66.4	66.4	54	49.2	1	3	90	0.00	29.963 
17:55	66.3	66.3	66.3	54	49.1	0	2	90	0.00	29.963 
18:00	66.3	66.3	66.3	54	49.1	0	2	90	0.00	29.968 
18:05	66.3	66.3	66.3	55	49.6	0	1	90	0.00	29.968 
18:10	66.1	66.1	66.1	54	49.0	1	3	90	0.00	29.968 
18:15	66.1	66.1	66.1	54	49.0	0	1	90	0.00	29.965 
18:20	66.0	66.0	66.0	55	49.4	0	1	90	0.00	29.965 
18:25	66.0	66.0	66.0	55	49.4	0	1	90	0.00	29.965 
18:30	65.8	65.8	65.8	56	49.7	0	2	90	0.00	29.966 
18:35	65.6	65.6	65.6	56	49.5	0	1	90	0.00	29.966 
18:40	65.5	65.5	65.5	56	49.4	0	2	90	0.00	29.966 
18:45	65.3	65.3	65.3	57	49.7	0	1	90	0.00	29.967 
18:50	65.2	65.2	65.2	57	49.6	0	1	90	0.00	29.967 
18:55	64.8	64.8	64.8	57	49.2	0	2	90	0.00	29.967 
19:00	64.7	64.7	64.7	58	49.6	0	1	90	0.00	29.970 
19:05	64.3	64.3	64.3	59	49.7	0	0	---	0.00	29.970 
19:10	64.0	64.0	64.0	60	49.8	0	1	90	0.00	29.970 
19:15	63.7	63.7	63.7	60	49.5	0	1	90	0.00	29.972 
19:20	63.4	63.4	63.4	61	49.7	0	0	---	0.00	29.972 
19:25	63.1	63.1	63.1	62	49.9	0	0	---	0.00	29.972 
19:30	62.6	62.6	62.6	63	49.8	0	0	---	0.00	29.973 
19:35	62.1	62.1	62.1	64	49.8	0	0	---	0.00	29.973 
19:40	61.6	61.6	61.6	66	50.1	0	0	---	0.00	29.973 
19:45	61.0	61.0	61.0	67	50.0	0	0	---	0.00	29.975 
19:50	60.5	60.5	60.5	68	49.9	0	0	---	0.00	29.975 
19:55	60.2	60.2	60.2	69	50.0	0	0	---	0.00	29.975 
20:00	59.9	59.9	59.9	69	49.7	0	0	---	0.00	29.981 
20:05	59.6	59.6	59.6	69	49.4	0	0	---	0.00	29.981 
20:10	59.3	59.3	59.3	72	50.3	0	0	---	0.00	29.981 
20:15	59.0	59.0	59.0	72	50.0	0	0	---	0.00	29.980 
20:20	58.7	58.7	58.7	72	49.7	0	0	---	0.00	29.980 
20:25	58.4	58.4	58.4	73	49.8	0	0	---	0.00	29.980 
20:30	58.1	58.1	58.1	73	49.5	0	0	---	0.00	29.982 
20:35	58.0	58.0	58.0	74	49.8	0	0	---	0.00	29.982 
20:40	57.6	57.6	57.6	75	49.7	0	0	---	0.00	29.982 
20:45	57.5	57.5	57.5	75	49.6	0	0	---	0.00	29.985 
20:50	57.2	57.2	57.2	76	49.7	0	0	---	0.00	29.985 
20:55	57.0	57.0	57.0	76	49.5	0	0	---	0.00	29.985 
21:00	56.9	56.9	56.9	78	50.1	0	0	---	0.00	29.992 
21:05	56.5	56.5	56.5	78	49.7	0	0	---	0.00	29.992 
21:10	56.3	56.3	56.3	78	49.5	0	0	---	0.00	29.992 
21:15	56.0	56.0	56.0	79	49.6	0	0	---	0.00	29.993 
21:20	55.7	55.7	55.7	79	49.3	0	0	---	0.00	29.993 
21:25	55.6	55.6	55.6	80	49.5	0	0	---	0.00	29.993 
21:30	55.3	55.3	55.3	80	49.2	0	0	---	0.00	29.991 
21:35	55.1	55.1	55.1	81	49.4	0	0	---	0.00	29.991 
21:40	55.0	55.0	55.0	81	49.3	0	0	---	0.00	29.991 
21:45	54.8	54.8	54.8	82	49.4	0	0	---	0.00	29.996 
21:50	54.7	54.7	54.7	82	49.3	0	0	---	0.00	29.996 
21:55	54.7	54.7	54.7	83	49.6	0	0	---	0.00	29.996 
22:00	54.5	54.5	54.5	83	49.4	0	0	---	0.00	29.995 
22:05	54.4	54.4	54.4	83	49.3	0	0	---	0.00	29.995 
22:10	54.2	54.2	54.2	83	49.1	0	0	---	0.00	29.995 
22:15	54.1	54.1	54.1	84	49.4	0	0	---	0.00	29.992 
22:20	54.1	54.1	54.1	84	49.4	0	0	---	0.00	29.992 
22:25	53.9	53.9	53.9	84	49.2	0	0	---	0.00	29.992 
22:30	53.8	53.8	53.8	84	49.1	0	0	---	0.00	29.994 
22:35	53.6	53.6	53.6	85	49.2	0	0	---	0.00	29.994 
22:40	53.6	53.6	53.6	85	49.2	0	0	---	0.00	29.994 
22:45	53.5	53.5	53.5	85	49.1	0	0	---	0.00	29.991 
22:50	53.5	53.5	53.5	86	49.4	0	0	---	0.00	29.991 
22:55	53.3	53.3	53.3	86	49.2	0	0	---	0.00	29.991 
23:00	53.3	53.3	53.3	86	49.2	0	0	---	0.00	29.993 
23:05	53.2	53.2	53.2	87	49.4	0	0	---	0.00	29.993 
23:10	53.1	53.1	53.1	87	49.3	0	0	---	0.00	29.993 
23:15	52.9	52.9	52.9	87	49.1	0	0	---	0.00	29.990 
23:20	52.9	52.9	52.9	87	49.1	0	0	---	0.00	29.990 
23:25	52.9	52.9	52.9	87	49.1	0	0	---	0.00	29.990 
23:30	52.8	52.8	52.8	88	49.3	0	0	---	0.00	29.990 
23:35	52.6	52.6	52.6	88	49.1	0	0	---	0.00	29.990 
23:40	52.5	52.5	52.5	88	49.0	0	0	---	0.00	29.990 
23:45	52.5	52.5	52.5	88	49.0	0	0	---	0.00	29.988 
23:50	52.5	52.5	52.5	88	49.0	0	0	---	0.00	29.988 
23:55	52.5	52.5	52.5	88	49.0	0	0	---	0.00	29.988 

CoCoRaHS
IN-AL-39
A2 Web Hosting
Creative Commons License
GoDaddy
search engine by freefind advanced

loaded 2018-11-20 15:31:21 • last modified 2010-11-18 10:43:29
Privacy PolicyDisclaimer
• wx.awcolley.com is powered by PmWiki v.2002016 •
• all content (unless otherwise noted) © 2018 A W Colley